Latest Weather Observations for Cape Byron

IDN60801

Issued at 8:23 am EDT Saturday 16 October 2021 (issued every 10 minutes, with the page automatically refreshed every 10 minutes)

About weather observations | Map of weather stations | Latest weather observations for NSW | Other Formats
Station Details ID: 058216 Name: CAPE BYRON AWS Lat: -28.64 Lon: 153.64 Height: 95.0 m
Data from the previous 72 hours. | See also: Recent months at Cape Byron
Date/Time
EDT
Temp
°C
App
Temp
°C
Dew
Point
°C
Rel
Hum
%
Delta-T
°C
Wind Press
QNH
hPa
Press
MSL
hPa
Rain since
9am
mm
Dir  Spd
km/h
Gust
km/h
Spd
kts
Gust
kts
16/08:00am 18.7 17.3 5.5 42 6.5 NW 2 7 1 4 1010.1 1009.8 0.0
16/07:30am 17.5 15.0 4.8 43 6.1 WNW 7 13 4 7 1009.5 1009.2 0.0
16/07:00am 17.3 13.9 3.9 41 6.3 W 11 15 6 8 1009.3 1009.0 0.0
16/06:30am 17.1 12.6 4.1 42 6.1 WSW 17 24 9 13 1009.0 1008.7 0.0
16/06:00am 17.2 13.4 3.8 41 6.3 W 13 22 7 12 1008.4 1008.0 0.0
16/05:30am 17.6 12.5 3.9 40 6.5 W 20 28 11 15 1008.1 1007.7 0.0
16/05:00am 17.3 11.9 4.3 42 6.2 WNW 22 32 12 17 1007.4 1007.0 0.0
16/04:30am 17.5 12.1 4.5 42 6.2 WNW 22 30 12 16 1007.4 1007.0 0.0
16/04:00am 17.6 12.0 5.2 44 6.0 WNW 24 33 13 18 1007.2 1006.8 0.0
16/03:30am 18.5 12.2 3.6 37 7.0 W 26 39 14 21 1007.4 1007.0 0.0
16/03:00am 19.2 12.7 2.6 33 7.7 W 26 39 14 21 1007.5 1007.1 0.0
16/02:30am 18.6 16.1 4.8 40 6.7 NW 7 13 4 7 1008.0 1007.6 0.0
16/02:00am 19.2 16.3 2.6 33 7.7 WNW 7 15 4 8 1007.9 1007.5 0.0
16/01:30am 19.7 15.3 2.6 32 8.0 W 15 20 8 11 1008.0 1007.6 0.0
16/01:00am 19.7 15.0 3.0 33 7.9 W 17 20 9 11 1008.1 1007.7 0.0
16/12:30am 19.6 14.4 3.3 34 7.7 WNW 20 26 11 14 1008.0 1007.6 0.0
16/12:00am 20.3 14.3 3.1 32 8.2 WNW 24 32 13 17 1007.9 1007.5 0.0
 
Date/Time
EDT
Temp
°C
App
Temp
°C
Dew
Point
°C
Rel
Hum
%
Delta-T
°C
Wind Press
QNH
hPa
Press
MSL
hPa
Rain since
9am
mm
Dir  Spd
km/h
Gust
km/h
Spd
kts
Gust
kts
15/11:30pm 20.9 15.6 3.2 31 8.4 W 20 32 11 17 1007.8 1007.4 0.0
15/11:00pm 21.5 16.1 2.7 29 8.9 W 20 28 11 15 1007.6 1007.2 0.0
15/10:30pm 20.0 15.5 6.0 40 7.0 WNW 19 24 10 13 1007.5 1007.1 0.0
15/10:00pm 18.6 17.2 10.9 61 4.2 NW 9 15 5 8 1007.3 1006.9 0.0
15/09:30pm 19.4 19.4 18.1 92 0.8 NNW 15 20 8 11 1007.2 1006.8 0.0
15/09:00pm 20.0 20.3 18.0 88 1.2 NW 13 19 7 10 1007.0 1006.6 0.0
15/08:30pm 20.4 20.7 17.8 85 1.6 NNW 13 20 7 11 1006.7 1006.3 0.0
15/08:00pm 20.6 20.4 18.4 87 1.4 N 17 22 9 12 1006.6 1006.2 0.0
15/07:30pm 20.6 20.9 18.7 89 1.2 NNW 15 26 8 14 1006.3 1005.9 0.0
15/07:00pm 20.9 21.3 19.0 89 1.2 NW 15 28 8 15 1005.7 1005.3 0.0
15/06:30pm 21.6 20.8 19.2 86 1.5 NNW 22 37 12 20 1004.6 1004.3 0.0
15/06:00pm 22.1 19.7 18.3 79 2.4 NNW 28 44 15 24 1003.9 1003.6 0.0
15/05:30pm 22.4 20.6 18.8 80 2.3 N 26 37 14 20 1003.4 1003.1 0.0
15/05:00pm 22.8 20.6 18.8 78 2.5 N 28 43 15 23 1003.2 1002.9 0.0
15/04:30pm 23.6 20.0 17.3 67 3.9 N 32 43 17 23 1003.4 1003.1 0.0
15/04:19pm 23.5 20.9 17.7 70 3.6 N 28 46 15 25 1003.4 1003.1 0.0
15/04:00pm 24.8 22.9 15.7 57 5.6 N 20 33 11 18 1003.5 1003.2 0.0
15/03:30pm 25.4 23.0 14.5 51 6.5 NNW 20 33 11 18 1003.4 1003.1 0.0
15/03:00pm 25.1 23.2 15.7 56 5.7 NNW 20 32 11 17 1003.5 1003.2 0.0
15/02:30pm 23.9 22.3 18.3 71 3.5 N 24 35 13 19 1003.6 1003.3 0.0
15/02:05pm 23.4 20.7 18.5 74 3.1 N 30 48 16 26 1003.9 1003.6 0.0
15/02:00pm 23.1 19.8 18.4 75 3.0 N 33 48 18 26 1003.9 1003.6 0.0
15/01:49pm 23.1 19.8 18.4 75 3.0 N 33 52 18 28 1004.0 1003.7 0.0
15/01:30pm 22.7 18.9 18.0 75 2.9 NNE 35 50 19 27 1004.4 1004.1 0.0
15/01:16pm 23.7 21.5 18.8 74 3.1 NNE 28 48 15 26 1004.7 1004.4 0.0
15/01:00pm 23.6 21.5 18.9 75 3.0 NNE 28 44 15 24 1005.0 1004.7 0.0
15/12:30pm 24.1 22.4 19.0 73 3.3 N 26 37 14 20 1005.6 1005.2 0.0
15/12:00pm 23.7 21.9 18.8 74 3.1 N 26 39 14 21 1005.9 1005.5 0.0
15/11:30am 23.3 22.7 19.7 80 2.3 N 22 39 12 21 1006.6 1006.2 0.0
15/11:00am 23.5 23.2 20.4 83 2.0 N 22 30 12 16 1007.1 1006.7 0.0
15/10:30am 22.6 22.9 20.3 87 1.5 N 19 35 10 19 1007.7 1007.3 0.0
15/10:00am 22.4 22.6 19.4 83 1.9 NNW 17 24 9 13 1007.9 1007.5 0.0
15/09:30am 21.5 19.9 18.3 82 2.0 N 24 35 13 19 1007.1 1006.7 0.0
15/09:00am 20.2 17.3 18.0 87 1.4 N 30 41 16 22 1008.0 1007.6 5.2
15/08:30am 20.5 18.6 19.3 93 0.8 N 28 37 15 20 1008.3 1007.9 5.0
15/08:11am 20.8 17.9 19.3 91 1.0 NNE 33 50 18 27 1008.3 1007.9 4.6
15/08:03am 20.9 16.3 19.6 92 0.8 NE 43 61 23 33 1007.9 1007.5 4.6
15/08:00am 20.8 15.5 19.5 92 0.8 NE 46 61 25 33 1007.7 1007.3 4.6
15/07:39am 17.9 8.0 15.2 84 1.6 NNE 61 87 33 47 1007.1 1006.7 4.4
15/07:30am 20.3 13.5 19.5 95 0.5 N 54 87 29 47 1006.8 1006.4 2.2
15/07:26am 20.2 16.0 19.0 93 0.8 NNW 39 76 21 41 1006.8 1006.4 1.4
15/07:21am 21.2 19.8 20.4 95 0.5 NW 28 52 15 28 1007.5 1007.1 1.0
15/07:08am 21.3 19.1 20.3 94 0.6 NNW 32 50 17 27 1007.8 1007.4 1.0
15/07:04am 21.3 17.8 20.3 94 0.6 N 39 57 21 31 1007.8 1007.4 1.0
15/07:00am 21.3 17.3 20.1 93 0.8 N 41 57 22 31 1007.1 1006.7 1.0
15/06:30am 21.3 18.0 20.1 93 0.8 NNE 37 59 20 32 1006.2 1005.8 0.8
15/06:04am 20.9 16.3 18.8 88 1.3 NNE 41 59 22 32 1006.6 1006.2 0.8
15/06:00am 20.9 15.8 18.7 87 1.4 NNE 43 59 23 32 1006.7 1006.3 0.8
15/05:36am 19.9 14.4 17.7 87 1.4 NNE 43 63 23 34 1006.8 1006.4 0.8
15/05:30am 20.2 14.8 18.0 87 1.4 NNE 43 57 23 31 1006.7 1006.3 0.8
15/05:16am 20.6 16.7 18.7 89 1.2 N 37 56 20 30 1007.1 1006.7 0.8
15/05:00am 19.9 15.9 18.6 92 0.8 N 37 54 20 29 1007.0 1006.6 0.8
15/04:55am 20.3 17.7 19.5 95 0.5 N 32 54 17 29 1007.1 1006.7 0.8
15/04:30am 21.1 18.4 20.4 96 0.5 N 35 48 19 26 1007.5 1007.1 0.8
15/04:00am 20.1 14.0 18.4 90 1.1 N 48 87 26 47 1007.1 1006.7 0.8
15/03:51am 18.7 13.1 17.4 92 0.8 N 43 74 23 40 1006.9 1006.5 0.8
15/03:46am 20.7 17.9 20.2 97 0.3 N 35 56 19 30 1007.1 1006.7 0.8
15/03:30am 20.6 18.7 20.1 97 0.3 N 30 41 16 22 1007.4 1007.0 0.8
15/03:00am 20.9 17.4 20.4 97 0.3 N 39 52 21 28 1007.4 1007.0 0.8
15/02:30am 20.9 18.5 20.4 97 0.3 N 33 46 18 25 1008.2 1007.8 0.8
15/02:00am 20.8 16.9 20.3 97 0.3 N 41 63 22 34 1008.1 1007.7 0.8
15/01:56am 20.8 17.3 20.3 97 0.3 N 39 63 21 34 1008.1 1007.7 0.8
15/01:30am 20.6 18.7 20.1 97 0.3 N 30 43 16 23 1008.8 1008.4 0.8
15/01:00am 20.4 19.5 19.9 97 0.3 N 24 33 13 18 1009.4 1009.1 0.8
15/12:30am 20.5 18.8 19.8 96 0.4 N 28 37 15 20 1010.0 1009.7 0.8
15/12:00am 20.5 19.5 19.7 95 0.5 N 24 35 13 19 1010.3 1010.0 0.8
 
Date/Time
EDT
Temp
°C
App
Temp
°C
Dew
Point
°C
Rel
Hum
%
Delta-T
°C
Wind Press
QNH
hPa
Press
MSL
hPa
Rain since
9am
mm
Dir  Spd
km/h
Gust
km/h
Spd
kts
Gust
kts
14/11:30pm 20.6 18.0 19.4 93 0.8 NNE 32 43 17 23 1010.5 1010.2 0.6
14/11:00pm 20.1 18.8 19.1 94 0.6 N 24 35 13 19 1011.0 1010.7 0.6
14/10:30pm 20.3 18.4 19.3 94 0.6 N 28 39 15 21 1011.3 1011.0 0.6
14/10:00pm 20.5 18.2 19.3 93 0.8 N 30 41 16 22 1011.3 1011.0 0.6
14/09:46pm 20.4 18.0 19.1 92 0.8 NNE 30 48 16 26 1011.0 1010.7 0.6
14/09:30pm 20.3 17.2 18.8 91 0.9 NNE 33 46 18 25 1011.1 1010.8 0.4
14/09:00pm 20.3 18.1 18.8 91 0.9 NNE 28 44 15 24 1011.5 1011.2 0.4
14/08:30pm 20.2 17.6 18.7 91 0.9 NNE 30 41 16 22 1011.9 1011.6 0.4
14/08:00pm 20.4 19.0 18.7 90 1.1 NNE 24 33 13 18 1011.9 1011.6 0.4
14/07:30pm 20.3 17.5 18.2 88 1.3 NNE 30 37 16 20 1011.4 1011.1 0.4
14/07:00pm 20.3 18.7 18.4 89 1.2 NNE 24 33 13 18 1011.1 1010.8 0.4
14/06:30pm 20.0 18.4 18.3 90 1.1 N 24 30 13 16 1011.0 1010.7 0.4
14/06:00pm 20.6 19.9 18.2 86 1.5 N 19 28 10 15 1011.3 1011.0 0.4
14/05:30pm 21.0 20.1 18.2 84 1.7 N 20 28 11 15 1010.7 1010.4 0.4
14/05:00pm 20.9 19.2 18.1 84 1.7 N 24 33 13 18 1010.6 1010.3 0.4
14/04:30pm 20.6 18.9 18.2 86 1.5 N 24 35 13 19 1010.8 1010.5 0.4
14/04:00pm 20.5 19.7 18.1 86 1.5 N 19 26 10 14 1011.1 1010.8 0.4
14/03:30pm 20.6 19.1 17.6 83 1.9 N 22 32 12 17 1011.0 1010.7 0.4
14/03:00pm 20.5 18.8 17.3 82 2.0 N 22 30 12 16 1011.2 1010.9 0.4
14/02:30pm 20.6 17.8 17.4 82 2.0 N 28 39 15 21 1011.4 1011.1 0.4
14/02:00pm 20.4 17.6 17.2 82 2.0 NNE 28 39 15 21 1011.7 1011.4 0.4
14/01:30pm 20.2 17.8 17.4 84 1.7 NNE 26 39 14 21 1012.0 1011.7 0.4
14/01:00pm 19.9 17.2 17.5 86 1.5 N 28 41 15 22 1012.2 1011.9 0.2
14/12:30pm 20.0 16.9 17.4 85 1.6 NNE 30 43 16 23 1012.3 1012.0 0.2
14/12:00pm 19.7 16.7 17.7 88 1.2 NNE 30 43 16 23 1012.4 1012.1 0.2
14/11:30am 19.5 16.0 17.8 90 1.0 NE 33 50 18 27 1012.5 1012.2 0.0
14/11:09am 19.3 15.8 17.4 89 1.2 NE 32 50 17 27 1012.8 1012.5 0.0
14/11:00am 19.7 16.1 17.3 86 1.5 NNE 32 46 17 25 1013.0 1012.7 0.0
14/10:47am 20.4 16.1 17.0 81 2.1 NE 35 54 19 29 1013.1 1012.8 0.0
14/10:30am 20.3 14.3 16.9 81 2.1 NE 44 56 24 30 1012.9 1012.6 0.0
14/10:00am 20.1 13.7 16.9 82 1.9 NE 46 54 25 29 1013.1 1012.8 0.0
14/09:30am 20.4 14.5 17.2 82 2.0 NE 44 52 24 28 1013.4 1013.1 0.0
14/09:00am 19.9 13.2 17.1 84 1.7 NE 48 57 26 31 1013.5 1013.2 0.4
14/08:30am 20.2 14.1 16.6 80 2.2 NE 44 52 24 28 1013.4 1013.1 0.4
14/08:00am 20.1 14.3 16.9 82 1.9 NE 43 52 23 28 1012.9 1012.6 0.4
14/07:30am 19.8 13.8 17.0 84 1.7 NE 44 52 24 28 1012.7 1012.4 0.4
14/07:00am 19.6 14.9 16.8 84 1.7 ENE 37 50 20 27 1012.5 1012.2 0.4
14/06:30am 19.4 14.2 16.6 84 1.7 NE 39 46 21 25 1012.2 1011.9 0.4
14/06:00am 19.4 15.6 16.8 85 1.6 ENE 32 41 17 22 1012.2 1011.9 0.4
14/05:30am 19.3 13.8 16.7 85 1.6 ENE 41 48 22 26 1012.0 1011.7 0.4
14/05:00am 19.3 15.4 16.9 86 1.5 ENE 33 41 18 22 1011.8 1011.5 0.4
14/04:30am 19.3 14.0 16.3 83 1.8 ENE 39 46 21 25 1011.6 1011.3 0.4
14/04:00am 19.2 13.9 16.4 84 1.7 NE 39 46 21 25 1011.8 1011.5 0.4
14/03:30am 19.3 14.4 16.3 83 1.8 ENE 37 44 20 24 1011.9 1011.6 0.4
14/03:00am 19.2 15.1 16.4 84 1.7 ENE 33 43 18 23 1012.5 1012.2 0.4
14/02:30am 18.9 14.0 16.3 85 1.6 NE 37 46 20 25 1012.7 1012.4 0.4
14/02:00am 18.3 16.8 16.8 91 0.9 ENE 20 33 11 18 1012.9 1012.6 0.4
14/01:30am 19.0 13.7 16.2 84 1.7 NE 39 52 21 28 1013.3 1013.0 0.4
14/01:00am 19.2 16.0 16.2 83 1.8 ENE 28 39 15 21 1013.7 1013.4 0.4
14/12:30am 19.2 14.6 16.1 82 1.9 ENE 35 44 19 24 1013.6 1013.3 0.4
14/12:00am 19.2 15.1 15.9 81 2.0 ENE 32 43 17 23 1014.0 1013.7 0.4
 
Date/Time
EDT
Temp
°C
App
Temp
°C
Dew
Point
°C
Rel
Hum
%
Delta-T
°C
Wind Press
QNH
hPa
Press
MSL
hPa
Rain since
9am
mm
Dir  Spd
km/h
Gust
km/h
Spd
kts
Gust
kts
13/11:30pm 19.2 15.1 15.9 81 2.0 ENE 32 43 17 23 1014.4 1014.1 0.4
13/11:00pm 19.1 16.8 15.8 81 2.0 ENE 22 32 12 17 1014.5 1014.2 0.4
13/10:30pm 18.9 16.9 15.4 80 2.1 E 20 33 11 18 1014.5 1014.2 0.4
13/10:00pm 19.1 17.1 15.4 79 2.2 ENE 20 32 11 17 1014.4 1014.1 0.4
13/09:30pm 19.3 17.4 15.8 80 2.1 E 20 35 11 19 1014.9 1014.6 0.4
13/09:00pm 19.5 17.6 15.8 79 2.2 ENE 20 33 11 18 1015.0 1014.7 0.4
13/08:30pm 19.4 17.8 15.9 80 2.1 ENE 19 30 10 16 1014.7 1014.4 0.4
13/08:00pm 19.4 17.6 15.9 80 2.1 E 20 33 11 18 1014.3 1014.0 0.4
13/07:30pm 19.4 17.7 15.7 79 2.2 E 19 30 10 16 1014.0 1013.7 0.4
13/07:00pm 19.5 17.8 15.8 79 2.2 E 19 32 10 17 1013.8 1013.5 0.4
13/06:30pm 19.5 17.2 15.8 79 2.2 E 22 37 12 20 1013.6 1013.3 0.4
13/06:00pm 19.8 18.0 15.9 78 2.3 E 20 32 11 17 1013.2 1012.9 0.4
13/05:30pm 19.8 18.1 15.7 77 2.4 E 19 28 10 15 1013.1 1012.8 0.4
13/05:00pm 20.4 18.1 15.8 75 2.8 E 22 33 12 18 1012.7 1012.4 0.4
13/04:30pm 20.4 18.1 15.8 75 2.8 E 22 35 12 19 1012.5 1012.2 0.4
13/04:00pm 20.4 18.2 16.0 76 2.6 E 22 39 12 21 1012.7 1012.4 0.4
13/03:30pm 20.4 18.5 15.8 75 2.8 E 20 30 11 16 1012.7 1012.4 0.4
13/03:00pm 21.4 18.8 15.9 71 3.3 E 24 33 13 18 1012.6 1012.3 0.4
13/02:30pm 22.0 19.9 16.3 70 3.5 E 22 33 12 18 1012.4 1012.1 0.4
13/02:00pm 23.1 21.4 17.1 69 3.7 E 22 33 12 18 1012.7 1012.4 0.4
13/01:30pm 22.5 20.4 17.2 72 3.3 E 24 37 13 20 1012.9 1012.6 0.4
13/01:00pm 21.0 18.7 16.6 76 2.7 E 24 37 13 20 1013.1 1012.8 0.4
13/12:30pm 20.5 18.6 16.7 79 2.3 E 22 39 12 21 1013.6 1013.3 0.4
13/12:00pm 20.7 18.4 16.7 78 2.4 E 24 35 13 19 1013.7 1013.4 0.2
13/11:30am 20.4 18.3 17.2 82 2.0 E 24 35 13 19 1014.0 1013.7 0.2
13/11:00am 20.5 19.1 17.1 81 2.1 ENE 20 39 11 21 1014.3 1014.0 0.2
13/10:30am 21.5 20.1 17.9 80 2.2 E 22 33 12 18 1014.4 1014.1 0.2
13/10:00am 19.2 17.0 16.8 86 1.5 ENE 24 35 13 19 1014.5 1014.2 0.2
13/09:30am 19.0 16.5 17.1 89 1.2 E 26 37 14 20 1014.5 1014.2 0.2
13/09:00am 20.2 16.6 17.2 83 1.8 E 32 43 17 23 1014.2 1013.9 15.0
13/08:30am 19.9 16.3 17.7 87 1.4 E 33 46 18 25 1014.2 1013.9 15.0

Other formats

Comma delimited format used in spreadsheet applications
http://www.bom.gov.au/fwo/IDN60801/IDN60801.94599.axf

JavaScript Object Notation format (JSON) in row-major order
http://www.bom.gov.au/fwo/IDN60801/IDN60801.94599.json

Data quality

Most of these data are generated automatically and are frequently updated. Quality checks on data are not normally performed. It is possible for incorrect values to appear. Refer to information at About Latest Weather Observations and please check the disclaimer before using these data.